Tiempo atmosférico en la estación meteorológica de Ejea De Los Caballeros, Zaragoza (321 m.)



Fecha
DESCASC
Temp. máxima en grados centígrados (hora)
DESCASC
Temp. mínima en grados centígrados (hora)
DESCASC
Temp. media en grados centígrados
DESCASC
Racha de viento máxima en m/sg (hora)
DESCASC
Velocidad máxima media en intervalos de 10 minutos(hora)
DESCASC
Precipitaciones diarias en mm
DESCASC
Precipitaciones de 00:00 a 06:00 en mm
DESCASC
Precipitaciones de 06:00 a 12:00 en mm
DESCASC
Precipitaciones de 12:00 a 18:00 en mm
DESCASC
Precipitaciones de 18:00 a 24:00 en mm
DESCASC
31-03-2020 4.9 (23:59) 0.5 (07:50) 2.7 3.06 (20:40) 1.39 (18:00) 17.4 4 5.2 7.4 0.8
29-03-2020 17.4 (15:50) 3.3 (00:00) 10.3 10.83 (18:40) 3.61 (20:50) 0 0 0 0 0
28-03-2020 18.7 (16:00) 0.6 (00:00) 9.7 5 (16:40) 2.5 (17:00) 0 0 0 0 0
27-03-2020 14.7 (16:00) 1.2 (00:00) 7.9 4.17 (12:30) 2.22 (18:40) 0 0 0 0 0
26-03-2020 14.5 (16:00) 3.6 (00:00) 9 11.67 (11:40) 5.28 (11:40) 0 0 0 0 0
25-03-2020 11 (16:40) 4.3 (00:00) 7.7 7.5 (13:40) 2.5 (13:40) 0 0 0 0 0
24-03-2020 16.8 (14:40) 8.2 (00:00) 12.5 6.67 (23:40) 2.78 (15:20) 0.4 0.4 0 0 0
23-03-2020 17.1 (14:30) 8 (00:00) 12.6 6.39 (11:20) 3.33 (15:30) 1.4 0 0 0.4 1
22-03-2020 18.7 (16:00) 4.3 (07:20) 11.5 6.39 (14:50) 1.94 (14:30) 0 0 0 0 0
21-03-2020 18.2 (15:00) 4.8 (00:00) 11.5 5 (10:50) 1.94 (10:50) 0 0 0 0 0
20-03-2020 16.9 (15:40) 5.1 (00:00) 11 6.94 (16:00) 2.5 (14:20) 0 0 0 0 0
19-03-2020 18.1 (14:10) 6.2 (00:00) 12.2 5.56 (15:00) 2.22 (11:10) 0 0 0 0 0
18-03-2020 16.5 (15:00) 5.9 (00:00) 11.2 3.33 (14:00) 1.67 (13:50) 0 0 0 0 0
17-03-2020 14.3 (15:00) 8 (00:00) 11.2 3.33 (15:10) 1.39 (11:10) 0.4 0 0 0.4 0
16-03-2020 11 (00:00) 5.6 (00:00) 8.3 6.39 (10:40) 2.78 (09:20) 18.8 9.8 7.8 0.8 0.4
15-03-2020 18.8 (14:50) 3.2 (00:00) 11 10.28 (21:10) 3.61 (21:10) 3.4 0 0 1.8 1.6
14-03-2020 18.6 (15:50) 3.7 (00:00) 11.2 7.22 (12:20) 3.06 (15:20) 0 0 0 0 0
13-03-2020 15.5 (14:40) 7.4 (23:59) 11.5 8.89 (06:10) 2.78 (02:40) 0 0 0 0 0
12-03-2020 23.9 (16:10) 7.4 (00:00) 15.6 6.67 (20:10) 2.78 (17:20) 0 0 0 0 0
11-03-2020 24.7 (17:00) 5.2 (00:00) 15 5.56 (13:50) 2.78 (12:10) 0 0 0 0 0
10-03-2020 21.9 (16:20) 6.4 (00:00) 14.1 6.67 (01:30) 3.06 (01:00) 0 0 0 0 0
09-03-2020 14.5 (13:20) 7.5 (00:00) 11 10.83 (12:40) 4.72 (14:50) 0 0 0 0 0
08-03-2020 17.3 (16:20) 1.5 (00:00) 9.4 6.67 (13:10) 2.78 (13:30) 0 0 0 0 0
07-03-2020 15.4 (15:10) 4.6 (00:00) 10 10.83 (11:30) 4.17 (16:00) 0 0 0 0 0
06-03-2020 9.7 (14:20) 2.6 (00:00) 6.1 14.17 (12:00) 5.56 (12:00) 2.8 0 0.4 0.6 1.8
05-03-2020 16.7 (14:30) 6 (00:00) 11.4 11.67 (15:50) 4.72 (12:40) 1.2 0 0 1.2 0
04-03-2020 20.5 (17:00) 6.7 (02:40) 13.6 5.83 (15:50) 2.22 (13:10) 0.4 0.2 0 0.2 0
03-03-2020 16 (17:20) 2.5 (00:00) 9.3 11.94 (18:10) 4.72 (20:50) 2.8 0 2.8 0 0
02-03-2020 15.6 (06:00) 5.3 (00:00) 10.5 15 (06:10) 7.78 (06:10) 3.8 0.4 3.4 0 0

Gráficas

Temp. máximas Temp. mínimas Temp. medias Precipitaciones Rachas de viento máximas Velocidades máximas media en intervalos de 10 minutos

Datos horarios

Fecha y hora oficial Temperatura (ºC) Velocidad del viento (km/h) Dirección del viento Racha (km/h) Dirección de racha Precipitación (mm) Presión (hPa) Tendencia (hPa) Humedad (%)
2020-03-31 23:00:00 4.7 2 Nordeste 4 Norte 0.2 -- -- 95
2020-03-31 22:00:00 4.5 0 Calma 6 Oeste 0.4 -- -- 94
2020-03-31 21:00:00 4.5 2 Sur 11 Sudoeste 0.2 -- -- 93
2020-03-31 20:00:00 4.7 3 Sudoeste 6 Sudoeste 0 -- -- 92
2020-03-31 19:00:00 4.6 3 Sudoeste 9 Sudoeste 0 -- -- 93
2020-03-31 18:00:00 4.3 5 Sudoeste 9 Sudoeste 0.6 -- -- 93
2020-03-31 17:00:00 4 2 Oeste 5 Oeste 0.8 -- -- 94
2020-03-31 16:00:00 3.4 2 Sudoeste 6 Sudoeste 1.8 -- -- 94
2020-03-31 15:00:00 2.9 3 Sudoeste 5 Sur 1.6 -- -- 94
2020-03-31 14:00:00 2.6 4 Sudoeste 6 Sur 1.4 -- -- 94
2020-03-31 13:00:00 2.3 2 Sudoeste 6 Noroeste 1.2 -- -- 93
2020-03-31 12:00:00 1.8 2 Oeste 4 Oeste 1 -- -- 94
2020-03-31 11:00:00 1.2 2 Sudoeste 5 Sudoeste 0.6 -- -- 94
2020-03-31 10:00:00 0.9 2 Sudoeste 4 Sur 0.4 -- -- 94
2020-03-31 09:00:00 0.6 0 Calma 0 Calma 1 -- -- 94
2020-03-31 08:00:00 0.5 0 Calma 2 Sur 0.8 -- -- 93
2020-03-31 07:00:00 0.6 0 Calma 2 Sudoeste 1.4 -- -- 92
2020-03-31 06:00:00 0.8 0 Calma 0 Calma 1.6 -- -- 90
2020-03-31 05:00:00 1.3 0 Calma 4 Sudoeste 1.4 -- -- 88
2020-03-31 04:00:00 2.5 0 Calma 5 Sudeste 0.8 -- -- 85
2020-03-31 03:00:00 3.7 2 Sudeste 8 Sur 0.2 -- -- 78
2020-03-31 02:00:00 4.4 0 Calma 3 Sudeste 0 -- -- 70
2020-03-31 01:00:00 4.6 2 Sudoeste 6 Oeste 0 -- -- 66
2020-03-31 00:00:00 4.8 3 Oeste 11 Oeste 0 -- -- 64
2020-03-30 23:00:00 5.2 4 Oeste 13 Oeste 0 -- -- 60
2020-03-30 22:00:00 5.7 4 Oeste 12 Oeste 0 -- -- 55
2020-03-30 21:00:00 6.5 3 Oeste 15 Norte 0 -- -- 52
2020-03-30 20:00:00 7.4 5 Norte 24 Oeste 0 -- -- 49
2020-03-30 19:00:00 8 7 Oeste 27 Norte 0 -- -- 46
2020-03-30 18:00:00 9.2 6 Noroeste 25 Noroeste 0 -- -- 44
2020-03-30 17:00:00 9.8 9 Noroeste 26 Oeste 0 -- -- 40
2020-03-30 16:00:00 9.4 9 Oeste 31 Oeste 0 -- -- 41
2020-03-30 15:00:00 9.1 11 Oeste 31 Noroeste 0 -- -- 42
2020-03-30 14:00:00 9.6 8 Oeste 26 Noroeste 0 -- -- 43
2020-03-30 13:00:00 8.2 7 Oeste 29 Oeste 0 -- -- 42
2020-03-30 12:00:00 7.4 9 Oeste 35 Oeste 0 -- -- 44
2020-03-30 11:00:00 6.7 7 Noroeste 32 Oeste 0 -- -- 48
2020-03-30 10:00:00 4.2 10 Oeste 30 Sudoeste 0 -- -- 60
2020-03-30 09:00:00 3.4 11 Oeste 29 Oeste 0 -- -- 66
2020-03-30 08:00:00 3.6 10 Oeste 27 Oeste 0 -- -- 68
2020-03-30 07:00:00 3.9 12 Oeste 33 Noroeste 0 -- -- 69
2020-03-30 06:00:00 3.7 13 Oeste 36 Oeste 0 -- -- 72
2020-03-30 05:00:00 3.9 13 Oeste 40 Oeste 0 -- -- 75
2020-03-30 04:00:00 4.5 14 Oeste 34 Oeste 0 -- -- 74
2020-03-30 03:00:00 6.1 10 Oeste 31 Oeste 0 -- -- 72
2020-03-30 02:00:00 7.3 10 Oeste 28 Oeste 0 -- -- 71
2020-03-30 01:00:00 7.9 9 Oeste 31 Oeste 0 -- -- 77
2020-03-30 00:00:00 8.6 8 Oeste 34 Oeste 0 -- -- 75
2020-03-29 23:00:00 9 12 Oeste 34 Noroeste 0 -- -- 75
2020-03-29 22:00:00 9.5 13 Oeste 35 Oeste 0 -- -- 71
2020-03-29 21:00:00 10.2 12 Oeste 32 Noroeste 0 -- -- 68
2020-03-29 20:00:00 11.8 11 Oeste 32 Oeste 0 -- -- 63
2020-03-29 19:00:00 13.5 10 Oeste 39 Noroeste 0 -- -- 56
2020-03-29 18:00:00 16.1 9 Noroeste 38 Norte 0 -- -- 47
2020-03-29 17:00:00 16.9 10 Oeste 31 Noroeste 0 -- -- 46
2020-03-29 16:00:00 17.4 10 Oeste 33 Noroeste 0 -- -- 45
2020-03-29 15:00:00 17 12 Oeste 36 Noroeste 0 -- -- 44
2020-03-29 14:00:00 16.6 11 Oeste 30 Oeste 0 -- -- 43
2020-03-29 13:00:00 15.8 8 Oeste 29 Oeste 0 -- -- 45
2020-03-29 12:00:00 13.7 8 Oeste 27 Oeste 0 -- -- 54
2020-03-29 11:00:00 11.3 9 Oeste 22 Noroeste 0 -- -- 58
2020-03-29 10:00:00 8.1 6 Oeste 14 Oeste 0 -- -- 71
2020-03-29 09:00:00 3.9 3 Sudoeste 7 Sudoeste 0 -- -- 86
2020-03-29 08:00:00 3.4 3 Sudoeste 7 Sudoeste 0 -- -- 85
2020-03-29 07:00:00 3.8 3 Oeste 6 Sudoeste 0 -- -- 81
2020-03-29 06:00:00 4.1 0 Calma 5 Sudoeste 0 -- -- 84
2020-03-29 05:00:00 4.8 2 Sudoeste 5 Oeste 0 -- -- 84
2020-03-29 03:00:00 6.6 3 Sudoeste 7 Noroeste 0 -- -- 80
2020-03-29 01:00:00 7.5 3 Oeste 12 Noroeste 0 -- -- 78
2020-03-29 00:00:00 7.6 4 Oeste 8 Oeste 0 -- -- 77
2020-03-28 23:00:00 8 0 Calma 5 Sudoeste 0 -- -- 79
2020-03-28 22:00:00 9.6 2 Sudoeste 4 Sudoeste 0 -- -- 71
2020-03-28 21:00:00 11.3 2 Sudeste 10 Norte 0 -- -- 65
2020-03-28 20:00:00 13.6 2 Sudoeste 11 Sudoeste 0 -- -- 57
2020-03-28 19:00:00 16.9 4 Sudoeste 12 Sudoeste 0 -- -- 45
2020-03-28 18:00:00 17.9 6 Oeste 17 Sudoeste 0 -- -- 37
2020-03-28 17:00:00 18.3 9 Sudoeste 18 Sudoeste 0 -- -- 37
2020-03-28 16:00:00 18.7 7 Sudoeste 17 Sudoeste 0 -- -- 34
2020-03-28 15:00:00 17.9 6 Oeste 15 Oeste 0 -- -- 35
2020-03-28 14:00:00 17 6 Oeste 18 Sudoeste 0 -- -- 41
2020-03-28 13:00:00 15.8 5 Oeste 14 Oeste 0 -- -- 46
2020-03-28 12:00:00 13.9 5 Oeste 13 Oeste 0 -- -- 54
2020-03-28 11:00:00 12 4 Oeste 11 Sudoeste 0 -- -- 61
2020-03-28 10:00:00 8.4 4 Sudoeste 9 Sudoeste 0 -- -- 73
2020-03-28 09:00:00 3.8 3 Sudoeste 6 Sudoeste 0 -- -- 88
2020-03-28 08:00:00 1.1 0 Calma 3 Nordeste 0 -- -- 94
2020-03-28 07:00:00 0.6 0 Calma 5 Nordeste 0 -- -- 92
2020-03-28 06:00:00 1 0 Calma 5 Nordeste 0 -- -- 92
2020-03-28 05:00:00 1.5 3 Nordeste 6 Nordeste 0 -- -- 92
2020-03-28 04:00:00 1.5 0 Calma 9 Nordeste 0 -- -- 90
2020-03-28 03:00:00 2.3 3 Nordeste 6 Nordeste 0 -- -- 90
2020-03-28 02:00:00 2.5 0 Calma 4 Norte 0 -- -- 90
2020-03-28 01:00:00 3.2 0 Calma 4 Nordeste 0 -- -- 88
2020-03-28 00:00:00 4.1 0 Calma 5 Este 0 -- -- 85
2020-03-27 23:00:00 5.2 2 Nordeste 4 Nordeste 0 -- -- 81
2020-03-27 22:00:00 6.8 0 Calma 2 Nordeste 0 -- -- 76
2020-03-27 21:00:00 8.3 0 Calma 5 Sudoeste 0 -- -- 71
2020-03-27 20:00:00 10.3 2 Sudoeste 9 Sudoeste 0 -- -- 62
2020-03-27 19:00:00 12.7 6 Sudoeste 13 Sudoeste 0 -- -- 51
2020-03-27 18:00:00 13.7 7 Sudoeste 14 Sudoeste 0 -- -- 44
2020-03-27 17:00:00 14.5 4 Sudoeste 13 Oeste 0 -- -- 40
2020-03-27 16:00:00 14.7 4 Oeste 12 Sudoeste 0 -- -- 43
2020-03-27 15:00:00 14 5 Oeste 14 Sudoeste 0 -- -- 43
2020-03-27 14:00:00 13.8 6 Sudoeste 14 Sudoeste 0 -- -- 44
2020-03-27 13:00:00 12.6 5 Sudoeste 15 Sudoeste 0 -- -- 50
2020-03-27 12:00:00 11.5 4 Oeste 12 Sudoeste 0 -- -- 58
2020-03-27 11:00:00 9.8 5 Oeste 11 Sudoeste 0 -- -- 62
2020-03-27 10:00:00 7.2 4 Oeste 9 Oeste 0 -- -- 75
2020-03-27 09:00:00 2.7 3 Sudoeste 7 Sudoeste 0 -- -- 93
2020-03-27 08:00:00 1.3 0 Calma 7 Norte 0 -- -- 92
2020-03-27 07:00:00 1.7 2 Sudoeste 5 Sudoeste 0 -- -- 90
2020-03-27 06:00:00 2.9 0 Calma 8 Norte 0 -- -- 90
2020-03-27 05:00:00 3.4 0 Calma 3 Oeste 0 -- -- 90
2020-03-27 04:00:00 3.4 0 Calma 5 Sudeste 0 -- -- 92
2020-03-27 03:00:00 2.7 0 Calma 2 Sur 0 -- -- 90
2020-03-27 02:00:00 3.7 0 Calma 8 Este 0 -- -- 86
2020-03-27 01:00:00 4.9 4 Este 14 Nordeste 0 -- -- 83
2020-03-27 00:00:00 4.4 4 Este 17 Este 0 -- -- 84
2020-03-26 23:00:00 4.7 5 Este 19 Nordeste 0 -- -- 80
2020-03-26 22:00:00 6.4 6 Norte 19 Noroeste 0 -- -- 72
2020-03-26 21:00:00 6.4 9 Norte 21 Norte 0 -- -- 54
2020-03-26 20:00:00 8.4 5 Norte 18 Sudoeste 0 -- -- 47
2020-03-26 19:00:00 10.5 6 Oeste 24 Noroeste 0 -- -- 41
2020-03-26 18:00:00 12.4 8 Oeste 30 Noroeste 0 -- -- 38
2020-03-26 17:00:00 13.7 8 Norte 30 Norte 0 -- -- 34
2020-03-26 16:00:00 14.5 10 Norte 25 Noroeste 0 -- -- 31
2020-03-26 15:00:00 14.2 9 Oeste 35 Noroeste 0 -- -- 34
2020-03-26 14:00:00 13.7 12 Norte 33 Noroeste 0 -- -- 32
2020-03-26 13:00:00 13.1 9 Norte 36 Norte 0 -- -- 36
2020-03-26 12:00:00 12.2 16 Norte 42 Norte 0 -- -- 39
2020-03-26 11:00:00 11.3 11 Norte 41 Norte 0 -- -- 45
2020-03-26 10:00:00 9.8 12 Norte 32 Noroeste 0 -- -- 50
2020-03-26 09:00:00 8.1 7 Oeste 24 Oeste 0 -- -- 77
2020-03-26 08:00:00 6.7 7 Oeste 18 Noroeste 0 -- -- 82
2020-03-26 07:00:00 5.3 5 Oeste 17 Noroeste 0 -- -- 86
2020-03-26 06:00:00 4 3 Norte 13 Norte 0 -- -- 89
2020-03-26 05:00:00 3.6 2 Este 10 Noroeste 0 -- -- 89
2020-03-26 04:00:00 3.9 3 Norte 9 Oeste 0 -- -- 86
2020-03-26 03:00:00 4.1 4 Oeste 12 Oeste 0 -- -- 88
2020-03-26 02:00:00 5.5 3 Oeste 5 Oeste 0 -- -- 90
2020-03-26 01:00:00 5.1 2 Oeste 5 Oeste 0 -- -- 91
2020-03-26 00:00:00 4.5 2 Nordeste 5 Norte 0 -- -- 92
2020-03-25 23:00:00 4.5 0 Calma 8 Nordeste 0 -- -- 91
2020-03-25 22:00:00 4.8 3 Este 9 Nordeste 0 -- -- 89
2020-03-25 21:00:00 5.7 3 Nordeste 10 Nordeste 0 -- -- 86
2020-03-25 20:00:00 6.9 4 Este 16 Nordeste 0 -- -- 82
2020-03-25 19:00:00 8.3 6 Este 17 Este 0 -- -- 76
2020-03-25 18:00:00 9.6 6 Este 20 Sudeste 0 -- -- 73
2020-03-25 17:00:00 10.4 8 Nordeste 25 Este 0 -- -- 70
2020-03-25 16:00:00 10.3 5 Este 20 Nordeste 0 -- -- 73
2020-03-25 15:00:00 10.2 7 Este 25 Nordeste 0 -- -- 71
2020-03-25 14:00:00 9.5 6 Este 27 Este 0 -- -- 75
2020-03-25 13:00:00 9.2 6 Este 18 Este 0 -- -- 76
2020-03-25 12:00:00 7.8 6 Este 21 Nordeste 0 -- -- 81
2020-03-25 11:00:00 7.9 6 Este 23 Este 0 -- -- 82
2020-03-25 10:00:00 7.8 8 Este 23 Este 0 -- -- 83
2020-03-25 09:00:00 8 6 Este 18 Este 0 -- -- 86
2020-03-25 08:00:00 8 4 Este 15 Este 0 -- -- 89
2020-03-25 07:00:00 7.9 4 Este 13 Este 0 -- -- 90
2020-03-25 06:00:00 8 5 Este 13 Este 0 -- -- 92
2020-03-25 05:00:00 8.1 2 Este 13 Nordeste 0 -- -- 91
2020-03-25 04:00:00 8.6 5 Nordeste 16 Este 0 -- -- 89
2020-03-25 03:00:00 8.9 5 Este 18 Este 0 -- -- 89
2020-03-25 02:00:00 9.2 4 Este 16 Nordeste 0 -- -- 88
2020-03-25 01:00:00 9.4 7 Nordeste 23 Nordeste 0 -- -- 89
2020-03-25 00:00:00 10.1 7 Este 24 Este 0 -- -- 83
2020-03-24 23:00:00 11.2 4 Este 14 Norte 0 -- -- 80
2020-03-24 22:00:00 11.9 5 Este 15 Nordeste 0 -- -- 78
2020-03-24 21:00:00 12.9 0 Calma 9 Sudoeste 0 -- -- 71
2020-03-24 20:00:00 13.4 3 Sur 14 Sudoeste 0 -- -- 72
2020-03-24 19:00:00 14.4 6 Sudoeste 18 Sudoeste 0 -- -- 66
2020-03-24 18:00:00 15.6 8 Sudoeste 18 Sudoeste 0 -- -- 60
2020-03-24 17:00:00 15.8 8 Sudoeste 21 Oeste 0 -- -- 61
2020-03-24 16:00:00 16.5 7 Sudoeste 19 Sudoeste 0 -- -- 61
2020-03-24 15:00:00 16.5 8 Sudoeste 18 Sudoeste 0 -- -- 64
2020-03-24 14:00:00 15.6 6 Sudoeste 14 Sudoeste 0 -- -- 65
2020-03-24 13:00:00 14.1 5 Noroeste 10 Sudoeste 0 -- -- 66
2020-03-24 12:00:00 13.9 3 Este 11 Sudeste 0 -- -- 70
2020-03-24 11:00:00 13.4 4 Este 11 Nordeste 0 -- -- 75
2020-03-24 10:00:00 11.3 3 Este 13 Nordeste 0 -- -- 83
2020-03-24 09:00:00 10 3 Nordeste 10 Nordeste 0 -- -- 93
2020-03-24 08:00:00 8.9 4 Nordeste 9 Este 0 -- -- 95
2020-03-24 07:00:00 8.4 2 Este 6 Este 0 -- -- 95
2020-03-24 06:00:00 8.5 0 Calma 7 Nordeste 0 -- -- 94
2020-03-24 05:00:00 9.2 0 Calma 10 Nordeste 0 -- -- 94
2020-03-24 04:00:00 9.3 5 Nordeste 8 Este 0 -- -- 95
2020-03-24 03:00:00 9.9 0 Calma 7 Este 0 -- -- 94
2020-03-24 02:00:00 10.4 0 Calma 8 Este 0 -- -- 94
2020-03-24 01:00:00 10.6 4 Nordeste 11 Nordeste 0.4 -- -- 94
2020-03-24 00:00:00 10.9 3 Este 12 Este 1 -- -- 91
2020-03-23 23:00:00 10.9 3 Nordeste 8 Este 0 -- -- 89
2020-03-23 22:00:00 11 2 Nordeste 10 Nordeste 0 -- -- 87
2020-03-23 21:00:00 11.3 2 Este 8 Nordeste 0 -- -- 85
2020-03-23 20:00:00 12.3 0 Calma 8 Este 0 -- -- 81
2020-03-23 19:00:00 13.7 3 Este 14 Nordeste 0 -- -- 76
2020-03-23 18:00:00 14.6 4 Este 13 Nordeste 0 -- -- 69
2020-03-23 17:00:00 14 2 Nordeste 13 Oeste 0.4 -- -- 78
2020-03-23 16:00:00 13.3 5 Sudoeste 22 Sudoeste 0 -- -- 77
2020-03-23 15:00:00 16 9 Sudoeste 15 Este 0 -- -- 66
2020-03-23 14:00:00 16.5 4 Sudeste 17 Sudeste 0 -- -- 63
2020-03-23 13:00:00 15.3 4 Este 16 Este 0 -- -- 67
2020-03-23 12:00:00 15.9 6 Este 23 Nordeste 0 -- -- 64
2020-03-23 11:00:00 14.2 5 Este 14 Nordeste 0 -- -- 71
2020-03-23 10:00:00 13.4 4 Nordeste 9 Nordeste 0 -- -- 77
2020-03-23 09:00:00 9.8 3 Nordeste 4 Norte 0 -- -- 90
2020-03-23 08:00:00 8.3 0 Calma 3 Sudeste 0 -- -- 94
2020-03-23 07:00:00 8.3 0 Calma 9 Nordeste 0 -- -- 90
2020-03-23 06:00:00 9.3 2 Nordeste 6 Este 0 -- -- 91
2020-03-23 05:00:00 9.1 0 Calma 9 Este 0 -- -- 91
2020-03-23 04:00:00 8.8 2 Nordeste 8 Nordeste 0 -- -- 89
2020-03-23 03:00:00 8.7 2 Nordeste 4 Nordeste 0 -- -- 91
2020-03-23 02:00:00 8.9 0 Calma 6 Este 0 -- -- 86
2020-03-23 01:00:00 9.8 3 Nordeste 8 Este 0 -- -- 85
2020-03-23 00:00:00 10.6 3 Nordeste 9 Nordeste 0 -- -- 82
2020-03-22 23:00:00 10.9 3 Nordeste 9 Nordeste 0 -- -- 81
2020-03-22 22:00:00 10.9 0 Calma 5 Norte 0 -- -- 81
2020-03-22 21:00:00 11.6 3 Nordeste 13 Sudeste 0 -- -- 76
2020-03-22 20:00:00 12.9 5 Sudeste 17 Sudeste 0 -- -- 72
2020-03-22 19:00:00 15.4 3 Sudeste 13 Este 0 -- -- 60
2020-03-22 18:00:00 17 4 Este 17 Nordeste 0 -- -- 51
2020-03-22 17:00:00 18 6 Este 18 Nordeste 0 -- -- 46
2020-03-22 16:00:00 18.7 5 Este 19 Nordeste 0 -- -- 50
2020-03-22 15:00:00 18.1 5 Nordeste 23 Nordeste 0 -- -- 51
2020-03-22 14:00:00 15.7 5 Este 13 Norte 0 -- -- 58
2020-03-22 13:00:00 15.6 4 Nordeste 9 Nordeste 0 -- -- 61
2020-03-22 12:00:00 14.3 5 Sudoeste 9 Oeste 0 -- -- 61
2020-03-22 11:00:00 13 3 Oeste 4 Sudoeste 0 -- -- 68
2020-03-22 10:00:00 9.1 2 Norte 8 Noroeste 0 -- -- 84
2020-03-22 09:00:00 6.6 0 Calma 8 Nordeste 0 -- -- 89
2020-03-22 08:00:00 4.5 3 Nordeste 8 Nordeste 0 -- -- 92
2020-03-22 07:00:00 4.6 3 Nordeste 10 Nordeste 0 -- -- 91
2020-03-22 06:00:00 5.3 2 Nordeste 6 Nordeste 0 -- -- 90
2020-03-22 05:00:00 5.6 3 Nordeste 11 Este 0 -- -- 90
2020-03-22 04:00:00 5.8 4 Nordeste 10 Este 0 -- -- 90
2020-03-22 03:00:00 6.1 3 Nordeste 9 Este 0 -- -- 86
2020-03-22 02:00:00 5.9 3 Nordeste 6 Este 0 -- -- 86
2020-03-22 01:00:00 6.3 2 Nordeste 6 Norte 0 -- -- 84
2020-03-22 00:00:00 7.4 4 Nordeste 13 Norte 0 -- -- 80
2020-03-21 23:00:00 7.9 5 Nordeste 12 Este 0 -- -- 79
2020-03-21 22:00:00 8.5 5 Nordeste 12 Este 0 -- -- 79
2020-03-21 21:00:00 9.9 4 Nordeste 10 Este 0 -- -- 78
2020-03-21 20:00:00 12 4 Nordeste 12 Sudeste 0 -- -- 69
2020-03-21 19:00:00 14.8 4 Este 12 Este 0 -- -- 60
2020-03-21 18:00:00 16.7 4 Este 15 Este 0 -- -- 49
2020-03-21 17:00:00 17.7 5 Este 17 Nordeste 0 -- -- 49
2020-03-21 16:00:00 18 4 Este 15 Este 0 -- -- 52
2020-03-21 15:00:00 18.2 4 Este 18 Sudeste 0 -- -- 45
2020-03-21 14:00:00 16.7 5 Este 17 Sudeste 0 -- -- 50
2020-03-21 13:00:00 16.3 6 Este 17 Sudeste 0 -- -- 51
2020-03-21 12:00:00 14.9 5 Sur 18 Nordeste 0 -- -- 55
2020-03-21 11:00:00 13.6 6 Este 18 Este 0 -- -- 61
2020-03-21 10:00:00 10.7 5 Este 14 Nordeste 0 -- -- 76
2020-03-21 09:00:00 7.4 5 Este 14 Este 0 -- -- 89
2020-03-21 08:00:00 5.1 2 Este 6 Este 0 -- -- 94
2020-03-21 07:00:00 5.5 3 Nordeste 12 Este 0 -- -- 94
2020-03-21 06:00:00 5.1 4 Nordeste 12 Nordeste 0 -- -- 94
2020-03-21 05:00:00 5.1 4 Nordeste 12 Nordeste 0 -- -- 92
2020-03-21 04:00:00 5.9 4 Nordeste 9 Este 0 -- -- 91
2020-03-21 03:00:00 6.8 3 Nordeste 10 Nordeste 0 -- -- 89
2020-03-21 02:00:00 7 4 Este 9 Este 0 -- -- 89
2020-03-21 01:00:00 7.8 6 Este 12 Este 0 -- -- 88
2020-03-21 00:00:00 7.3 3 Nordeste 6 Nordeste 0 -- -- 90
2020-03-20 23:00:00 8 2 Nordeste 6 Este 0 -- -- 88
2020-03-20 22:00:00 8.9 3 Nordeste 7 Este 0 -- -- 85
2020-03-20 21:00:00 10.7 4 Nordeste 9 Nordeste 0 -- -- 80
2020-03-20 20:00:00 11.9 3 Nordeste 11 Este 0 -- -- 77
2020-03-20 19:00:00 13.7 4 Este 13 Nordeste 0 -- -- 69
2020-03-20 18:00:00 15.1 5 Este 20 Nordeste 0 -- -- 62
2020-03-20 17:00:00 16 6 Este 19 Este 0 -- -- 57
2020-03-20 16:00:00 16.6 8 Este 25 Sudeste 0 -- -- 57
2020-03-20 15:00:00 16.7 8 Este 24 Este 0 -- -- 56
2020-03-20 14:00:00 16.2 6 Este 21 Nordeste 0 -- -- 62
2020-03-20 13:00:00 15.9 7 Este 19 Nordeste 0 -- -- 65
2020-03-20 12:00:00 14.1 8 Este 20 Nordeste 0 -- -- 70
2020-03-20 11:00:00 12.5 6 Este 23 Este 0 -- -- 75
2020-03-20 10:00:00 10.3 6 Este 18 Nordeste 0 -- -- 81
2020-03-20 09:00:00 7.3 6 Este 20 Sudeste 0 -- -- 92
2020-03-20 08:00:00 5.6 4 Nordeste 11 Este 0 -- -- 95
2020-03-20 07:00:00 5.4 3 Nordeste 10 Nordeste 0 -- -- 93
2020-03-20 06:00:00 5.9 3 Este 13 Nordeste 0 -- -- 93
2020-03-20 05:00:00 5.9 3 Este 10 Este 0 -- -- 91
2020-03-20 04:00:00 6.6 3 Nordeste 13 Nordeste 0 -- -- 88
2020-03-20 03:00:00 7.3 5 Este 17 Este 0 -- -- 86
2020-03-20 02:00:00 7.8 5 Este 15 Nordeste 0 -- -- 86
2020-03-20 01:00:00 8 5 Nordeste 13 Este 0 -- -- 86
2020-03-20 00:00:00 8.8 3 Este 12 Este 0 -- -- 87
2020-03-19 23:00:00 9.2 2 Nordeste 8 Nordeste 0 -- -- 89
2020-03-19 22:00:00 10.4 3 Este 9 Nordeste 0 -- -- 87
2020-03-19 21:00:00 11 2 Este 10 Este 0 -- -- 84
2020-03-19 20:00:00 12.7 3 Nordeste 10 Este 0 -- -- 76
2020-03-19 19:00:00 15 3 Este 17 Este 0 -- -- 67
2020-03-19 18:00:00 17.1 5 Este 16 Este 0 -- -- 60
2020-03-19 17:00:00 17.6 5 Este 15 Este 0 -- -- 65
2020-03-19 16:00:00 17.8 5 Este 18 Este 0 -- -- 63
2020-03-19 15:00:00 17.4 7 Este 20 Este 0 -- -- 65
2020-03-19 14:00:00 17.8 4 Sudeste 15 Sudeste 0 -- -- 66
2020-03-19 13:00:00 17.3 4 Este 18 Nordeste 0 -- -- 68
2020-03-19 12:00:00 15.9 6 Nordeste 18 Nordeste 0 -- -- 75
2020-03-19 11:00:00 14 4 Este 13 Sudeste 0 -- -- 84
2020-03-19 10:00:00 12.1 3 Este 15 Este 0 -- -- 94
2020-03-19 09:00:00 9.4 4 Este 11 Nordeste 0 -- -- 98
2020-03-19 08:00:00 6.9 3 Nordeste 9 Este 0 -- -- 97
2020-03-19 07:00:00 6.8 4 Nordeste 6 Este 0 -- -- 97
2020-03-19 06:00:00 6.3 0 Calma 7 Nordeste 0 -- -- 96
2020-03-19 05:00:00 6.5 0 Calma 3 Nordeste 0 -- -- 95
2020-03-19 04:00:00 7.3 3 Nordeste 5 Nordeste 0 -- -- 95
2020-03-19 03:00:00 7.6 4 Nordeste 8 Nordeste 0 -- -- 95
2020-03-19 02:00:00 8.1 4 Nordeste 6 Este 0 -- -- 95
2020-03-19 01:00:00 8.6 3 Nordeste 7 Nordeste 0 -- -- 95
2020-03-19 00:00:00 9 3 Nordeste 7 Nordeste 0 -- -- 95
2020-03-18 23:00:00 9.6 3 Nordeste 5 Nordeste 0 -- -- 94
2020-03-18 22:00:00 10.4 2 Nordeste 3 Nordeste 0 -- -- 93
2020-03-18 21:00:00 11.5 0 Calma 2 Nordeste 0 -- -- 89
2020-03-18 20:00:00 12.7 0 Calma 8 Sudoeste 0 -- -- 86
2020-03-18 19:00:00 14.3 3 Sudoeste 9 Sudoeste 0 -- -- 82
2020-03-18 18:00:00 15.4 5 Sudoeste 9 Sudoeste 0 -- -- 80
2020-03-18 17:00:00 16.2 4 Sudoeste 6 Sudoeste 0 -- -- 76
2020-03-18 16:00:00 16.3 0 Calma 8 Sudoeste 0 -- -- 75
2020-03-18 15:00:00 16.5 5 Sudoeste 10 Sudoeste 0 -- -- 75
2020-03-18 14:00:00 16 6 Sudoeste 12 Sudoeste 0 -- -- 75
2020-03-18 13:00:00 14.8 0 Calma 4 Norte 0 -- -- 78
2020-03-18 12:00:00 12.7 2 Norte 5 Norte 0 -- -- 84
2020-03-18 11:00:00 10.7 2 Nordeste 4 Sudeste 0 -- -- 98
2020-03-18 10:00:00 9 0 Calma 4 Sudoeste 0 -- -- 98
2020-03-18 09:00:00 7 0 Calma 3 Nordeste 0 -- -- 98
2020-03-18 08:00:00 6 0 Calma 4 Sudoeste 0 -- -- 97
2020-03-18 07:00:00 5.9 0 Calma 3 Sudoeste 0 -- -- 97
2020-03-18 06:00:00 6.2 0 Calma 2 Nordeste 0 -- -- 97
2020-03-18 05:00:00 6.4 0 Calma 2 Nordeste 0 -- -- 97
2020-03-18 04:00:00 6.7 0 Calma 3 Nordeste 0 -- -- 97
2020-03-18 03:00:00 6.9 2 Nordeste 4 Nordeste 0 -- -- 96
2020-03-18 02:00:00 7.2 2 Nordeste 4 Nordeste 0 -- -- 96
2020-03-18 01:00:00 7.5 2 Nordeste 3 Norte 0 -- -- 95
2020-03-18 00:00:00 8 0 Calma 4 Nordeste 0 -- -- 94
2020-03-17 23:00:00 9 0 Calma 2 Nordeste 0 -- -- 93
2020-03-17 22:00:00 10.2 0 Calma 4 Sudoeste 0 -- -- 92
2020-03-17 21:00:00 11.6 2 Sudoeste 5 Sudoeste 0 -- -- 90
2020-03-17 20:00:00 12.5 0 Calma 6 Norte 0 -- -- 89
2020-03-17 19:00:00 13.3 3 Oeste 8 Oeste 0 -- -- 87
2020-03-17 18:00:00 14 3 Oeste 7 Oeste 0 -- -- 85
2020-03-17 17:00:00 14 4 Sudoeste 6 Sudoeste 0 -- -- 85
2020-03-17 16:00:00 13.8 2 Sudeste 12 Este 0.4 -- -- 84
2020-03-17 15:00:00 14.3 3 Este 12 Nordeste 0 -- -- 81
2020-03-17 14:00:00 12.9 2 Norte 6 Norte 0 -- -- 85
2020-03-17 13:00:00 12.3 3 Norte 8 Norte 0 -- -- 87
2020-03-17 12:00:00 11.6 2 Noroeste 8 Sudoeste 0 -- -- 89
2020-03-17 11:00:00 10.6 4 Sudoeste 7 Sudoeste 0 -- -- 92
2020-03-17 10:00:00 9.8 0 Calma 6 Norte 0 -- -- 95
2020-03-17 09:00:00 9.4 4 Norte 8 Norte 0 -- -- 95
2020-03-17 08:00:00 9 2 Sudoeste 6 Noroeste 0 -- -- 94
2020-03-17 07:00:00 8.9 3 Oeste 9 Oeste 0 -- -- 94
2020-03-17 06:00:00 8.9 3 Oeste 7 Oeste 0 -- -- 94
2020-03-17 05:00:00 9 0 Calma 9 Noroeste 0 -- -- 94
2020-03-17 04:00:00 9 2 Nordeste 7 Noroeste 0 -- -- 94
2020-03-17 03:00:00 9 3 Sudoeste 9 Oeste 0 -- -- 94
2020-03-17 02:00:00 8.9 2 Oeste 8 Oeste 0 -- -- 95
2020-03-17 01:00:00 8.8 4 Oeste 11 Noroeste 0 -- -- 94
2020-03-17 00:00:00 8.8 3 Oeste 14 Sudoeste 0 -- -- 94
2020-03-16 23:00:00 8.9 5 Norte 19 Noroeste 0 -- -- 93
2020-03-16 22:00:00 9.2 4 Sudoeste 17 Sudoeste 0.2 -- -- 94
2020-03-16 21:00:00 9 6 Sudoeste 12 Sudoeste 0 -- -- 96
2020-03-16 20:00:00 8.7 0 Calma 6 Norte 0.2 -- -- 96
2020-03-16 19:00:00 8.7 0 Calma 5 Norte 0 -- -- 96
2020-03-16 18:00:00 8.5 2 Sudoeste 12 Oeste 0 -- -- 95
2020-03-16 17:00:00 8.1 3 Oeste 9 Oeste 0.2 -- -- 96
2020-03-16 16:00:00 7.5 3 Oeste 14 Oeste 0.2 -- -- 96
2020-03-16 15:00:00 6.5 5 Oeste 14 Oeste 0 -- -- 96
2020-03-16 14:00:00 5.9 4 Oeste 12 Oeste 0 -- -- 95
2020-03-16 13:00:00 5.6 4 Oeste 14 Oeste 0.4 -- -- 95
2020-03-16 12:00:00 5.9 4 Sudoeste 21 Noroeste 1.6 -- -- 95
2020-03-16 11:00:00 5.6 7 Oeste 23 Oeste 1.8 -- -- 94
2020-03-16 10:00:00 5.9 8 Oeste 20 Oeste 1.2 -- -- 93
2020-03-16 09:00:00 6.6 7 Sudoeste 18 Oeste 1.4 -- -- 94
2020-03-16 08:00:00 6.8 6 Oeste 20 Oeste 0.4 -- -- 94
2020-03-16 07:00:00 7 4 Oeste 17 Sudoeste 1.4 -- -- 94
2020-03-16 06:00:00 7.1 8 Oeste 18 Oeste 2.2 -- -- 94
2020-03-16 05:00:00 7.9 4 Oeste 15 Oeste 0.8 -- -- 93
2020-03-16 04:00:00 9.1 5 Oeste 14 Oeste 2 -- -- 92
2020-03-16 03:00:00 10.2 3 Sur 10 Este 1.4 -- -- 94
2020-03-16 02:00:00 10.1 4 Este 14 Este 0.8 -- -- 94
2020-03-16 01:00:00 10.7 5 Nordeste 11 Nordeste 2.6 -- -- 93
2020-03-16 00:00:00 11 3 Sudeste 19 Nordeste 1.2 -- -- 90
2020-03-15 23:00:00 11.3 6 Este 22 Nordeste 0 -- -- 88
2020-03-15 22:00:00 12.1 5 Este 37 Nordeste 0.4 -- -- 87
2020-03-15 21:00:00 12.3 9 Este 29 Nordeste 0 -- -- 85
2020-03-15 20:00:00 13.3 10 Este 32 Este 0 -- -- 84
2020-03-15 19:00:00 14.3 8 Este 32 Nordeste 0 -- -- 80
2020-03-15 18:00:00 15.5 8 Este 28 Este 0 -- -- 73
2020-03-15 17:00:00 15.6 7 Este 24 Este 0.4 -- -- 75
2020-03-15 16:00:00 15.6 9 Este 29 Este 1.4 -- -- 79
2020-03-15 15:00:00 18.6 10 Este 34 Sudeste 0 -- -- 55
2020-03-15 14:00:00 17.4 9 Este 33 Nordeste 0 -- -- 60
2020-03-15 13:00:00 17.2 12 Este 31 Este 0 -- -- 60
2020-03-15 12:00:00 15.9 11 Este 30 Este 0 -- -- 64
2020-03-15 11:00:00 14.4 8 Este 29 Este 0 -- -- 71
2020-03-15 10:00:00 11.5 8 Este 21 Nordeste 0 -- -- 79
2020-03-15 09:00:00 7.6 5 Este 15 Este 0 -- -- 92
2020-03-15 08:00:00 5.8 3 Este 14 Nordeste 0 -- -- 92
2020-03-15 07:00:00 5.3 2 Este 11 Sudeste 0 -- -- 93
2020-03-15 06:00:00 4.6 0 Calma 8 Nordeste 0 -- -- 94
2020-03-15 05:00:00 3.9 0 Calma 6 Nordeste 0 -- -- 93
2020-03-15 04:00:00 3.8 2 Nordeste 8 Este 0 -- -- 89
2020-03-15 03:00:00 3.2 2 Nordeste 5 Nordeste 0 -- -- 88
2020-03-15 02:00:00 3.8 2 Este 7 Nordeste 0 -- -- 85
2020-03-15 01:00:00 4.1 3 Nordeste 6 Nordeste 0 -- -- 85
2020-03-15 00:00:00 4.9 3 Nordeste 8 Norte 0 -- -- 80
2020-03-14 23:00:00 6.6 2 Este 6 Norte 0 -- -- 77
2020-03-14 22:00:00 8.5 2 Oeste 3 Norte 0 -- -- 73
2020-03-14 21:00:00 10.5 2 Oeste 9 Noroeste 0 -- -- 60
2020-03-14 20:00:00 12.8 2 Oeste 9 Oeste 0 -- -- 56
2020-03-14 19:00:00 15.4 4 Oeste 19 Noroeste 0 -- -- 49
2020-03-14 18:00:00 17.3 7 Oeste 22 Noroeste 0 -- -- 43
2020-03-14 17:00:00 18.3 8 Oeste 26 Oeste 0 -- -- 40
2020-03-14 16:00:00 18.6 10 Oeste 24 Noroeste 0 -- -- 37
2020-03-14 15:00:00 18.3 11 Oeste 26 Noroeste 0 -- -- 37
2020-03-14 14:00:00 17.5 9 Oeste 23 Noroeste 0 -- -- 38
2020-03-14 13:00:00 16.2 7 Oeste 26 Sudoeste 0 -- -- 42
2020-03-14 12:00:00 14.1 10 Oeste 24 Oeste 0 -- -- 48
2020-03-14 11:00:00 12 7 Oeste 24 Noroeste 0 -- -- 54
2020-03-14 10:00:00 9.2 8 Oeste 22 Sudoeste 0 -- -- 68
2020-03-14 09:00:00 5.7 6 Oeste 15 Oeste 0 -- -- 85
2020-03-14 08:00:00 4.1 4 Oeste 11 Oeste 0 -- -- 87
2020-03-14 07:00:00 3.8 3 Oeste 12 Sudoeste 0 -- -- 91
2020-03-14 06:00:00 4.5 5 Sudoeste 14 Sudoeste 0 -- -- 87
2020-03-14 05:00:00 5 4 Oeste 13 Sudoeste 0 -- -- 87
2020-03-14 04:00:00 5.1 3 Oeste 10 Sudoeste 0 -- -- 86
2020-03-14 03:00:00 5.6 4 Oeste 12 Sudoeste 0 -- -- 86
2020-03-14 02:00:00 6.1 2 Oeste 11 Sudoeste 0 -- -- 84
2020-03-14 01:00:00 6.7 4 Oeste 14 Sudoeste 0 -- -- 83
2020-03-14 00:00:00 7.4 4 Oeste 13 Oeste 0 -- -- 81
2020-03-13 23:00:00 8.3 3 Sudoeste 9 Sudoeste 0 -- -- 79
2020-03-13 22:00:00 9.2 3 Oeste 11 Oeste 0 -- -- 78
2020-03-13 21:00:00 10.6 4 Oeste 13 Oeste 0 -- -- 76
2020-03-13 20:00:00 12.1 3 Oeste 15 Noroeste 0 -- -- 70
2020-03-13 19:00:00 13.1 5 Oeste 11 Noroeste 0 -- -- 67
2020-03-13 18:00:00 13.7 3 Oeste 13 Oeste 0 -- -- 65
2020-03-13 17:00:00 14 5 Oeste 16 Oeste 0 -- -- 65
2020-03-13 16:00:00 14.8 6 Oeste 14 Norte 0 -- -- 63
2020-03-13 15:00:00 15.3 4 Oeste 15 Norte 0 -- -- 64
2020-03-13 14:00:00 15 3 Oeste 13 Norte 0 -- -- 63
2020-03-13 13:00:00 13.6 4 Oeste 17 Oeste 0 -- -- 66
2020-03-13 12:00:00 12.7 6 Oeste 19 Oeste 0 -- -- 67
2020-03-13 11:00:00 12.2 7 Oeste 19 Noroeste 0 -- -- 69
2020-03-13 10:00:00 11.1 7 Oeste 22 Noroeste 0 -- -- 73
2020-03-13 09:00:00 9.7 6 Oeste 20 Oeste 0 -- -- 77
2020-03-13 08:00:00 9.1 6 Oeste 21 Oeste 0 -- -- 77
2020-03-13 07:00:00 9.4 9 Oeste 32 Noroeste 0 -- -- 77
2020-03-13 06:00:00 9.8 9 Oeste 21 Oeste 0 -- -- 78
2020-03-13 05:00:00 10.2 8 Oeste 22 Noroeste 0 -- -- 81
2020-03-13 04:00:00 10.6 8 Oeste 24 Oeste 0 -- -- 81
2020-03-13 03:00:00 11.2 10 Oeste 26 Noroeste 0 -- -- 80
2020-03-13 02:00:00 11.2 9 Oeste 24 Noroeste 0 -- -- 82
2020-03-13 01:00:00 11.1 8 Oeste 21 Oeste 0 -- -- 83
2020-03-13 00:00:00 11.4 7 Oeste 19 Oeste 0 -- -- 82
2020-03-12 23:00:00 12 6 Oeste 21 Oeste 0 -- -- 79
2020-03-12 22:00:00 12.7 8 Oeste 24 Sudoeste 0 -- -- 77
2020-03-12 21:00:00 13.5 9 Oeste 24 Oeste 0 -- -- 75
2020-03-12 20:00:00 14.7 7 Oeste 22 Oeste 0 -- -- 72
2020-03-12 19:00:00 17 9 Oeste 21 Oeste 0 -- -- 66
2020-03-12 18:00:00 19.7 8 Oeste 23 Oeste 0 -- -- 58
2020-03-12 17:00:00 22.4 5 Oeste 17 Oeste 0 -- -- 49
2020-03-12 16:00:00 23.8 4 Oeste 11 Sudoeste 0 -- -- 47
2020-03-12 15:00:00 23.3 3 Sudoeste 8 Sudoeste 0 -- -- 47
2020-03-12 14:00:00 22.2 4 Sudoeste 14 Sudoeste 0 -- -- 52
2020-03-12 13:00:00 21.4 7 Sudoeste 13 Sudoeste 0 -- -- 52
2020-03-12 12:00:00 20.6 6 Sudoeste 14 Sudeste 0 -- -- 55
2020-03-12 11:00:00 18 0 Calma 9 Norte 0 -- -- 64
2020-03-12 10:00:00 14.2 5 Norte 9 Norte 0 -- -- 72
2020-03-12 09:00:00 10.5 3 Este 10 Sudeste 0 -- -- 83
2020-03-12 08:00:00 7.7 0 Calma 8 Norte 0 -- -- 87
2020-03-12 07:00:00 7.5 2 Este 6 Este 0 -- -- 90
2020-03-12 06:00:00 7.8 0 Calma 6 Nordeste 0 -- -- 89
2020-03-12 05:00:00 8.4 3 Nordeste 5 Nordeste 0 -- -- 89
2020-03-12 04:00:00 9.2 0 Calma 6 Norte 0 -- -- 86
2020-03-12 03:00:00 10.2 2 Nordeste 6 Nordeste 0 -- -- 83
2020-03-12 02:00:00 11.3 0 Calma 10 Norte 0 -- -- 78
2020-03-12 01:00:00 12 5 Nordeste 10 Nordeste 0 -- -- 74
2020-03-12 00:00:00 11.7 6 Nordeste 15 Este 0 -- -- 73
2020-03-11 23:00:00 11.7 3 Nordeste 6 Nordeste 0 -- -- 72
2020-03-11 22:00:00 12.7 2 Nordeste 10 Nordeste 0 -- -- 70
2020-03-11 21:00:00 14.4 0 Calma 5 Nordeste 0 -- -- 66
2020-03-11 20:00:00 17.8 0 Calma 3 Nordeste 0 -- -- 55
2020-03-11 19:00:00 21.4 0 Calma 4 Sudoeste 0 -- -- 43
2020-03-11 18:00:00 24 3 Oeste 7 Sudoeste 0 -- -- 34
2020-03-11 17:00:00 24.7 2 Nordeste 9 Norte 0 -- -- 32
2020-03-11 16:00:00 24 4 Nordeste 10 Sudoeste 0 -- -- 38
2020-03-11 15:00:00 23.5 5 Oeste 14 Sudoeste 0 -- -- 42
2020-03-11 14:00:00 21.9 5 Sudoeste 20 Sudoeste 0 -- -- 50
2020-03-11 13:00:00 20.1 8 Sudoeste 17 Sudoeste 0 -- -- 55
2020-03-11 12:00:00 18.1 8 Sudoeste 17 Sudoeste 0 -- -- 59
2020-03-11 11:00:00 15.8 5 Oeste 16 Oeste 0 -- -- 66
2020-03-11 10:00:00 12.5 5 Oeste 14 Oeste 0 -- -- 74
2020-03-11 09:00:00 7.4 4 Sudoeste 7 Sudoeste 0 -- -- 87
2020-03-11 08:00:00 5.7 0 Calma 8 Noroeste 0 -- -- 90
2020-03-11 07:00:00 5.5 0 Calma 9 Sudoeste 0 -- -- 85
2020-03-11 06:00:00 6.1 3 Sudoeste 7 Sudoeste 0 -- -- 84
2020-03-11 05:00:00 7.4 3 Sudoeste 8 Sudoeste 0 -- -- 77
2020-03-11 04:00:00 8 3 Oeste 11 Noroeste 0 -- -- 73
2020-03-11 03:00:00 6.9 2 Sur 4 Sudoeste 0 -- -- 74
2020-03-11 02:00:00 7.3 2 Sudoeste 4 Sudoeste 0 -- -- 67
2020-03-11 01:00:00 7.9 0 Calma 4 Sudoeste 0 -- -- 63
2020-03-11 00:00:00 9 2 Sudoeste 7 Sudoeste 0 -- -- 64
2020-03-10 23:00:00 10.2 3 Sudoeste 9 Sudoeste 0 -- -- 59
2020-03-10 22:00:00 11.9 0 Calma 7 Norte 0 -- -- 58
2020-03-10 21:00:00 14.2 2 Norte 9 Norte 0 -- -- 49
2020-03-10 20:00:00 16.4 2 Sudoeste 10 Noroeste 0 -- -- 45
2020-03-10 19:00:00 18.6 4 Oeste 10 Norte 0 -- -- 37
2020-03-10 18:00:00 20.3 3 Sur 13 Oeste 0 -- -- 35
2020-03-10 17:00:00 21.6 6 Oeste 17 Oeste 0 -- -- 32
2020-03-10 16:00:00 21.8 6 Noroeste 20 Norte 0 -- -- 31
2020-03-10 15:00:00 21.1 5 Oeste 15 Oeste 0 -- -- 34
2020-03-10 14:00:00 20.2 6 Oeste 20 Oeste 0 -- -- 36
2020-03-10 13:00:00 18.8 8 Oeste 19 Oeste 0 -- -- 37
2020-03-10 12:00:00 16 6 Oeste 16 Sudoeste 0 -- -- 53
2020-03-10 11:00:00 12.3 7 Sudoeste 15 Sudoeste 0 -- -- 70
2020-03-10 10:00:00 10 4 Sudoeste 12 Sudoeste 0 -- -- 77
2020-03-10 09:00:00 7.9 5 Oeste 14 Oeste 0 -- -- 81
2020-03-10 08:00:00 6.8 7 Oeste 15 Oeste 0 -- -- 84
2020-03-10 07:00:00 6.6 6 Oeste 14 Sudoeste 0 -- -- 83
2020-03-10 06:00:00 6.8 7 Oeste 16 Sudoeste 0 -- -- 82
2020-03-10 05:00:00 6.6 6 Sudoeste 17 Sudoeste 0 -- -- 82
2020-03-10 04:00:00 7.6 8 Oeste 18 Oeste 0 -- -- 77
2020-03-10 03:00:00 7.7 6 Oeste 23 Oeste 0 -- -- 77
2020-03-10 02:00:00 8.1 9 Oeste 24 Oeste 0 -- -- 74
2020-03-10 01:00:00 8.1 11 Oeste 24 Noroeste 0 -- -- 75
2020-03-10 00:00:00 8.3 6 Oeste 15 Oeste 0 -- -- 76
2020-03-09 23:00:00 9 4 Oeste 19 Sudoeste 0 -- -- 74
2020-03-09 22:00:00 8.9 8 Oeste 31 Oeste 0 -- -- 71
2020-03-09 21:00:00 8.9 8 Oeste 24 Sudoeste 0 -- -- 70
2020-03-09 20:00:00 9.6 6 Oeste 31 Norte 0 -- -- 64
2020-03-09 19:00:00 10.3 9 Norte 28 Noroeste 0 -- -- 65
2020-03-09 18:00:00 11.9 13 Norte 32 Norte 0 -- -- 61
2020-03-09 17:00:00 12.8 14 Norte 39 Norte 0 -- -- 59
2020-03-09 16:00:00 12.5 13 Norte 37 Norte 0 -- -- 59
2020-03-09 15:00:00 12.4 13 Norte 38 Norte 0 -- -- 60
2020-03-09 14:00:00 14 10 Oeste 37 Noroeste 0 -- -- 55
2020-03-09 13:00:00 14 9 Oeste 39 Oeste 0 -- -- 54
2020-03-09 12:00:00 12.4 9 Noroeste 31 Oeste 0 -- -- 61
2020-03-09 11:00:00 11.8 9 Oeste 30 Noroeste 0 -- -- 62
2020-03-09 10:00:00 10.2 10 Oeste 25 Noroeste 0 -- -- 67
2020-03-09 09:00:00 8.2 6 Oeste 18 Oeste 0 -- -- 75
2020-03-09 08:00:00 7.6 5 Oeste 18 Oeste 0 -- -- 76
2020-03-09 07:00:00 8.1 5 Oeste 19 Oeste 0 -- -- 73
2020-03-09 06:00:00 8.4 4 Norte 15 Noroeste 0 -- -- 73
2020-03-09 05:00:00 9.1 5 Norte 15 Noroeste 0 -- -- 71
2020-03-09 04:00:00 9.8 6 Oeste 14 Oeste 0 -- -- 74
2020-03-09 03:00:00 10.3 5 Noroeste 15 Norte 0 -- -- 70
2020-03-09 02:00:00 10.3 5 Oeste 14 Noroeste 0 -- -- 74
2020-03-09 01:00:00 10.5 4 Noroeste 21 Norte 0 -- -- 71
2020-03-09 00:00:00 10.2 3 Sudoeste 12 Sudoeste 0 -- -- 78
2020-03-08 23:00:00 9.7 5 Oeste 9 Sudoeste 0 -- -- 79
2020-03-08 22:00:00 10.7 0 Calma 7 Norte 0 -- -- 76
2020-03-08 21:00:00 12 2 Norte 7 Norte 0 -- -- 71
2020-03-08 20:00:00 13.4 2 Sudeste 9 Noroeste 0 -- -- 65
2020-03-08 19:00:00 14.8 3 Oeste 10 Oeste 0 -- -- 57
2020-03-08 18:00:00 16.5 5 Oeste 12 Noroeste 0 -- -- 51
2020-03-08 17:00:00 16.7 6 Oeste 14 Noroeste 0 -- -- 49
2020-03-08 16:00:00 16.9 6 Oeste 22 Noroeste 0 -- -- 50
2020-03-08 15:00:00 17 7 Oeste 19 Oeste 0 -- -- 49
2020-03-08 14:00:00 15.7 7 Oeste 24 Noroeste 0 -- -- 56
2020-03-08 13:00:00 14.9 9 Oeste 19 Noroeste 0 -- -- 57
2020-03-08 12:00:00 13.6 6 Oeste 17 Oeste 0 -- -- 63
2020-03-08 11:00:00 11.1 5 Oeste 13 Oeste 0 -- -- 71
2020-03-08 10:00:00 6.9 4 Sudoeste 11 Sudoeste 0 -- -- 91
2020-03-08 09:00:00 3 6 Sudoeste 12 Sudoeste 0 -- -- 96
2020-03-08 08:00:00 1.7 3 Sudoeste 6 Sudoeste 0 -- -- 96
2020-03-08 07:00:00 1.8 0 Calma 4 Sudoeste 0 -- -- 94
2020-03-08 06:00:00 2.3 0 Calma 4 Sudoeste 0 -- -- 93
2020-03-08 05:00:00 3.2 0 Calma 6 Sudoeste 0 -- -- 93
2020-03-08 04:00:00 3.6 3 Sudoeste 5 Sudoeste 0 -- -- 93
2020-03-08 03:00:00 4.2 0 Calma 4 Sudoeste 0 -- -- 91
2020-03-08 02:00:00 5.3 0 Calma 8 Sudoeste 0 -- -- 88
2020-03-08 01:00:00 6.6 0 Calma 11 Sudoeste 0 -- -- 84
2020-03-08 00:00:00 7.4 4 Oeste 15 Oeste 0 -- -- 82
2020-03-07 23:00:00 8.4 3 Noroeste 13 Oeste 0 -- -- 79
2020-03-07 22:00:00 9.1 8 Norte 17 Norte 0 -- -- 77
2020-03-07 21:00:00 9.6 4 Oeste 25 Oeste 0 -- -- 74
2020-03-07 20:00:00 10.2 8 Oeste 35 Norte 0 -- -- 75
2020-03-07 19:00:00 11.5 7 Oeste 24 Noroeste 0 -- -- 71
2020-03-07 18:00:00 12.9 7 Oeste 28 Norte 0 -- -- 63
2020-03-07 17:00:00 13.9 7 Noroeste 26 Oeste 0 -- -- 62
2020-03-07 16:00:00 14.7 15 Norte 38 Norte 0 -- -- 57
2020-03-07 15:00:00 15.3 9 Norte 33 Norte 0 -- -- 57
2020-03-07 14:00:00 14.7 9 Norte 32 Noroeste 0 -- -- 59
2020-03-07 13:00:00 13.5 8 Noroeste 33 Oeste 0 -- -- 62
2020-03-07 12:00:00 12.6 13 Oeste 39 Noroeste 0 -- -- 68
2020-03-07 11:00:00 11.6 11 Oeste 39 Oeste 0 -- -- 72
2020-03-07 10:00:00 9.3 12 Oeste 24 Oeste 0 -- -- 80
2020-03-07 09:00:00 6.9 8 Oeste 24 Oeste 0 -- -- 85
2020-03-07 08:00:00 5.5 10 Oeste 24 Sudoeste 0 -- -- 89
2020-03-07 07:00:00 5.1 9 Oeste 22 Sudoeste 0 -- -- 85
2020-03-07 06:00:00 5.2 9 Oeste 21 Oeste 0 -- -- 85
2020-03-07 05:00:00 5.1 9 Oeste 22 Oeste 0 -- -- 86
2020-03-07 04:00:00 5.1 9 Oeste 23 Oeste 0 -- -- 87
2020-03-07 03:00:00 5.3 9 Oeste 27 Oeste 0 -- -- 85
2020-03-07 02:00:00 4.6 6 Oeste 15 Oeste 0 -- -- 87
2020-03-07 01:00:00 4.7 4 Oeste 22 Oeste 0 -- -- 85
2020-03-07 00:00:00 4.9 7 Oeste 32 Noroeste 0 -- -- 85
2020-03-06 23:00:00 5.1 13 Oeste 27 Oeste 0.2 -- -- 87
2020-03-06 22:00:00 5.3 8 Oeste 21 Oeste 0.2 -- -- 87
2020-03-06 21:00:00 5.4 8 Oeste 32 Oeste 0.6 -- -- 83
2020-03-06 20:00:00 5.7 8 Oeste 31 Oeste 0.8 -- -- 86
2020-03-06 19:00:00 6.4 8 Oeste 33 Noroeste 0 -- -- 77
2020-03-06 18:00:00 6.1 5 Noroeste 32 Oeste 0.6 -- -- 85
2020-03-06 17:00:00 6 12 Oeste 40 Oeste 0 -- -- 81
2020-03-06 16:00:00 8.3 17 Oeste 38 Oeste 0 -- -- 67
2020-03-06 15:00:00 8.2 12 Oeste 44 Oeste 0 -- -- 72
2020-03-06 14:00:00 9.3 12 Oeste 41 Oeste 0 -- -- 66
2020-03-06 13:00:00 8.5 13 Oeste 43 Oeste 0 -- -- 62
2020-03-06 12:00:00 9.1 20 Oeste 51 Noroeste 0 -- -- 66
2020-03-06 11:00:00 8.8 12 Oeste 34 Oeste 0 -- -- 64
2020-03-06 10:00:00 7.9 10 Oeste 23 Noroeste 0 -- -- 77
2020-03-06 09:00:00 6.4 8 Oeste 21 Oeste 0 -- -- 82
2020-03-06 08:00:00 4.9 9 Oeste 23 Oeste 0.4 -- -- 95
2020-03-06 07:00:00 2.9 3 Este 6 Sudoeste 0 -- -- 92
2020-03-06 06:00:00 2.9 3 Sudoeste 5 Sudoeste 0 -- -- 93
2020-03-06 05:00:00 2.8 0 Calma 6 Sudoeste 0 -- -- 90
2020-03-06 04:00:00 3.3 2 Sur 6 Sudeste 0 -- -- 90
2020-03-06 03:00:00 4 4 Sur 10 Sudoeste 0 -- -- 88
2020-03-06 02:00:00 5 3 Oeste 9 Norte 0 -- -- 83
2020-03-06 01:00:00 5.7 2 Oeste 12 Norte 0 -- -- 80
2020-03-06 00:00:00 6 3 Nordeste 10 Norte 0 -- -- 79
2020-03-05 23:00:00 6.6 2 Oeste 8 Oeste 0 -- -- 75
2020-03-05 22:00:00 7.6 3 Oeste 12 Sudoeste 0 -- -- 69
2020-03-05 21:00:00 8.8 4 Oeste 17 Norte 0 -- -- 69
2020-03-05 20:00:00 10.1 5 Oeste 22 Norte 0 -- -- 66
2020-03-05 19:00:00 11 8 Norte 27 Noroeste 0 -- -- 64
2020-03-05 18:00:00 12.2 5 Oeste 30 Norte 0 -- -- 74
2020-03-05 17:00:00 13.6 10 Norte 33 Noroeste 0 -- -- 68
2020-03-05 16:00:00 13.7 15 Norte 42 Norte 0 -- -- 66
2020-03-05 15:00:00 16.4 11 Norte 39 Norte 0 -- -- 57
2020-03-05 14:00:00 15.4 7 Oeste 22 Noroeste 0.2 -- -- 68
2020-03-05 13:00:00 12.9 8 Oeste 36 Oeste 1 -- -- 77
2020-03-05 12:00:00 14.8 5 Sur 15 Sudeste 0 -- -- 72
2020-03-05 11:00:00 13.8 5 Sudoeste 18 Sur 0 -- -- 74
2020-03-05 10:00:00 12.9 8 Sur 20 Sur 0 -- -- 75
2020-03-05 09:00:00 10.6 3 Nordeste 9 Nordeste 0 -- -- 87
2020-03-05 08:00:00 10.1 3 Este 12 Este 0 -- -- 89
2020-03-05 07:00:00 9.5 3 Nordeste 15 Nordeste 0 -- -- 91
2020-03-05 06:00:00 9.2 4 Nordeste 10 Nordeste 0 -- -- 92
2020-03-05 05:00:00 8.6 5 Nordeste 10 Este 0 -- -- 91
2020-03-05 04:00:00 8.8 4 Nordeste 9 Nordeste 0 -- -- 92
2020-03-05 03:00:00 8.8 3 Nordeste 8 Nordeste 0 -- -- 91
2020-03-05 02:00:00 9.3 3 Nordeste 10 Este 0 -- -- 91
2020-03-05 01:00:00 10.3 2 Nordeste 4 Nordeste 0 -- -- 87
2020-03-05 00:00:00 11.3 0 Calma 4 Norte 0 -- -- 86
2020-03-04 23:00:00 11.9 2 Nordeste 4 Nordeste 0 -- -- 86
2020-03-04 22:00:00 13.4 0 Calma 3 Sudoeste 0 -- -- 82
2020-03-04 21:00:00 15.2 0 Calma 9 Sur 0 -- -- 76
2020-03-04 20:00:00 16.1 2 Norte 6 Norte 0 -- -- 73
2020-03-04 19:00:00 17.5 2 Norte 10 Norte 0 -- -- 66
2020-03-04 18:00:00 18.6 5 Norte 14 Norte 0 -- -- 62
2020-03-04 17:00:00 20.5 5 Noroeste 18 Norte 0 -- -- 57
2020-03-04 16:00:00 19.5 8 Norte 21 Norte 0 -- -- 56
2020-03-04 15:00:00 19.4 8 Oeste 20 Oeste 0 -- -- 60
2020-03-04 14:00:00 17.2 6 Oeste 17 Noroeste 0.2 -- -- 69
2020-03-04 13:00:00 15.9 7 Oeste 15 Sudoeste 0 -- -- 72
2020-03-04 12:00:00 13.5 4 Sudoeste 12 Sudoeste 0 -- -- 83
2020-03-04 11:00:00 11 5 Sudoeste 10 Sudoeste 0 -- -- 88
2020-03-04 10:00:00 9.2 3 Sudoeste 6 Sudoeste 0 -- -- 89
2020-03-04 09:00:00 8.3 3 Sudoeste 6 Sur 0 -- -- 91
2020-03-04 08:00:00 7.5 2 Sudoeste 5 Sudoeste 0 -- -- 92
2020-03-04 07:00:00 7.5 3 Sudoeste 9 Sudoeste 0 -- -- 91
2020-03-04 06:00:00 7.4 3 Sudoeste 6 Sudoeste 0.2 -- -- 92
2020-03-04 05:00:00 7.2 3 Sudoeste 13 Sudoeste 0 -- -- 89
2020-03-04 04:00:00 6.9 2 Sudoeste 4 Sudoeste 0 -- -- 89
2020-03-04 03:00:00 6.7 0 Calma 4 Sudoeste 0 -- -- 88
2020-03-04 02:00:00 7.1 0 Calma 11 Sudoeste 0 -- -- 84
2020-03-04 01:00:00 8.5 3 Oeste 16 Noroeste 0 -- -- 79
2020-03-04 00:00:00 9 6 Norte 21 Norte 0 -- -- 77
2020-03-03 23:00:00 9.7 4 Oeste 23 Norte 0 -- -- 74
2020-03-03 22:00:00 10.4 5 Oeste 29 Noroeste 0 -- -- 71
2020-03-03 21:00:00 11.3 16 Norte 35 Noroeste 0 -- -- 67
2020-03-03 20:00:00 12.2 13 Norte 30 Noroeste 0 -- -- 66
2020-03-03 19:00:00 13.8 9 Oeste 43 Nordeste 0 -- -- 60
2020-03-03 18:00:00 15 11 Noroeste 42 Norte 0 -- -- 53
2020-03-03 17:00:00 15.4 12 Norte 28 Norte 0 -- -- 60
2020-03-03 16:00:00 13.3 7 Norte 17 Nordeste 0 -- -- 70
2020-03-03 15:00:00 12.4 3 Este 17 Nordeste 0 -- -- 72
2020-03-03 14:00:00 11 6 Este 24 Nordeste 0 -- -- 75
2020-03-03 13:00:00 11.2 7 Este 26 Nordeste 0 -- -- 74
2020-03-03 12:00:00 8.3 7 Este 21 Nordeste 0 -- -- 89
2020-03-03 11:00:00 6 6 Este 18 Nordeste 0.4 -- -- 95
2020-03-03 10:00:00 4.5 3 Nordeste 10 Este 1.2 -- -- 94
2020-03-03 09:00:00 4 3 Nordeste 6 Nordeste 0.8 -- -- 93
2020-03-03 08:00:00 3.5 0 Calma 5 Sudoeste 0.4 -- -- 90
2020-03-03 07:00:00 3.2 0 Calma 4 Oeste 0 -- -- 88
2020-03-03 06:00:00 2.9 3 Nordeste 5 Nordeste 0 -- -- 88
2020-03-03 05:00:00 2.7 0 Calma 5 Este 0 -- -- 88
2020-03-03 04:00:00 2.5 3 Sudoeste 10 Sudoeste 0 -- -- 84
2020-03-03 03:00:00 3.1 4 Sudoeste 8 Sudoeste 0 -- -- 82
2020-03-03 02:00:00 3.4 0 Calma 6 Sudoeste 0 -- -- 82
2020-03-03 01:00:00 4.9 2 Sudoeste 12 Noroeste 0 -- -- 76
2020-03-03 00:00:00 5.3 5 Oeste 17 Oeste 0 -- -- 75
2020-03-02 23:00:00 5.7 3 Sudoeste 18 Oeste 0 -- -- 75
2020-03-02 22:00:00 5.8 6 Oeste 21 Noroeste 0 -- -- 74
2020-03-02 21:00:00 6.3 9 Oeste 25 Oeste 0 -- -- 70
2020-03-02 20:00:00 6.9 9 Oeste 28 Oeste 0 -- -- 67
2020-03-02 19:00:00 8.1 8 Oeste 39 Noroeste 0 -- -- 61
2020-03-02 18:00:00 9.7 13 Oeste 35 Oeste 0 -- -- 52
2020-03-02 17:00:00 11.3 10 Noroeste 39 Oeste 0 -- -- 52
2020-03-02 16:00:00 11.6 10 Oeste 35 Oeste 0 -- -- 50
2020-03-02 15:00:00 11.6 9 Noroeste 39 Norte 0 -- -- 56
2020-03-02 14:00:00 11.7 15 Oeste 39 Oeste 0 -- -- 51
2020-03-02 13:00:00 10.8 14 Oeste 35 Noroeste 0 -- -- 57
2020-03-02 12:00:00 10.7 15 Oeste 34 Oeste 0 -- -- 58
2020-03-02 11:00:00 10.1 15 Oeste 39 Oeste 0 -- -- 66
2020-03-02 10:00:00 8.8 10 Oeste 38 Sudoeste 0.8 -- -- 82
2020-03-02 09:00:00 8.9 11 Oeste 32 Oeste 1 -- -- 85
2020-03-02 08:00:00 8.6 8 Oeste 24 Noroeste 0 -- -- 85
2020-03-02 07:00:00 9.2 10 Oeste 54 Oeste 1.6 -- -- 87
2020-03-02 06:00:00 15.6 23 Sudoeste 49 Sudoeste 0 -- -- 62
2020-03-02 05:00:00 12.6 4 Sudeste 14 Sudeste 0 -- -- 79
2020-03-02 04:00:00 12 0 Calma 22 Oeste 0 -- -- 88
2020-03-02 03:00:00 11.7 3 Oeste 14 Sudoeste 0 -- -- 91
2020-03-02 02:00:00 11.2 4 Nordeste 10 Nordeste 0.2 -- -- 93
2020-03-02 01:00:00 11.4 3 Este 9 Nordeste 0.2 -- -- 92
2020-03-02 00:00:00 11.4 3 Este 8 Nordeste 0.4 -- -- 90